sensor_id;sensor_type;location;lat;lon;timestamp;pressure;altitude;pressure_sealevel;temperature;humidity
72721;BME280;60835;50.974;10.322;2022-07-26T00:00:05;98465.09;;;20.72;100.00
72721;BME280;60835;50.974;10.322;2022-07-26T00:02:34;98475.66;;;20.98;100.00
72721;BME280;60835;50.974;10.322;2022-07-26T00:05:00;98439.47;;;20.69;100.00
72721;BME280;60835;50.974;10.322;2022-07-26T00:07:27;98466.16;;;20.95;100.00
72721;BME280;60835;50.974;10.322;2022-07-26T00:10:02;98467.25;;;20.88;100.00
72721;BME280;60835;50.974;10.322;2022-07-26T00:12:29;98459.13;;;20.70;100.00
72721;BME280;60835;50.974;10.322;2022-07-26T00:14:55;98462.69;;;20.63;100.00
72721;BME280;60835;50.974;10.322;2022-07-26T00:17:22;98432.28;;;20.32;100.00
72721;BME280;60835;50.974;10.322;2022-07-26T00:19:49;98406.22;;;20.01;100.00
72721;BME280;60835;50.974;10.322;2022-07-26T00:22:15;98404.19;;;19.90;100.00
72721;BME280;60835;50.974;10.322;2022-07-26T00:25:03;98388.41;;;19.69;100.00
72721;BME280;60835;50.974;10.322;2022-07-26T00:27:31;98405.69;;;19.79;100.00
72721;BME280;60835;50.974;10.322;2022-07-26T00:29:58;98389.41;;;19.68;100.00
72721;BME280;60835;50.974;10.322;2022-07-26T00:32:25;98373.97;;;19.63;100.00
72721;BME280;60835;50.974;10.322;2022-07-26T00:34:51;98388.34;;;19.75;100.00
72721;BME280;60835;50.974;10.322;2022-07-26T00:37:18;98390.66;;;19.72;100.00
72721;BME280;60835;50.974;10.322;2022-07-26T00:39:46;98424.91;;;19.70;100.00
72721;BME280;60835;50.974;10.322;2022-07-26T00:42:13;98400.16;;;19.68;100.00
72721;BME280;60835;50.974;10.322;2022-07-26T00:44:42;98378.09;;;19.66;100.00
72721;BME280;60835;50.974;10.322;2022-07-26T00:47:10;98409.88;;;19.62;100.00
72721;BME280;60835;50.974;10.322;2022-07-26T00:49:37;98368.53;;;19.12;100.00
72721;BME280;60835;50.974;10.322;2022-07-26T00:52:05;98364.41;;;19.16;100.00
72721;BME280;60835;50.974;10.322;2022-07-26T00:54:32;98379.00;;;19.33;100.00
72721;BME280;60835;50.974;10.322;2022-07-26T00:56:59;98371.56;;;19.35;100.00
72721;BME280;60835;50.974;10.322;2022-07-26T00:59:26;98359.88;;;19.10;100.00
72721;BME280;60835;50.974;10.322;2022-07-26T01:01:52;98354.31;;;18.99;100.00
72721;BME280;60835;50.974;10.322;2022-07-26T01:04:20;98349.00;;;18.79;100.00
72721;BME280;60835;50.974;10.322;2022-07-26T01:06:48;98330.06;;;18.74;100.00
72721;BME280;60835;50.974;10.322;2022-07-26T01:09:15;98336.00;;;18.89;100.00
72721;BME280;60835;50.974;10.322;2022-07-26T01:11:42;98355.97;;;18.93;100.00
72721;BME280;60835;50.974;10.322;2022-07-26T01:14:08;98336.22;;;18.81;100.00
72721;BME280;60835;50.974;10.322;2022-07-26T01:16:35;98330.66;;;18.76;100.00
72721;BME280;60835;50.974;10.322;2022-07-26T01:19:03;98330.06;;;18.74;100.00
72721;BME280;60835;50.974;10.322;2022-07-26T01:21:30;98339.31;;;18.78;100.00
72721;BME280;60835;50.974;10.322;2022-07-26T01:23:56;98341.59;;;18.88;100.00
72721;BME280;60835;50.974;10.322;2022-07-26T01:26:23;98334.16;;;18.70;100.00
72721;BME280;60835;50.974;10.322;2022-07-26T01:28:51;98344.88;;;18.70;100.00
72721;BME280;60835;50.974;10.322;2022-07-26T01:31:17;98338.69;;;18.89;100.00
72721;BME280;60835;50.974;10.322;2022-07-26T01:33:44;98350.19;;;18.96;100.00
72721;BME280;60835;50.974;10.322;2022-07-26T01:36:11;98333.38;;;18.63;100.00
72721;BME280;60835;50.974;10.322;2022-07-26T01:38:41;98363.47;;;18.71;100.00
72721;BME280;60835;50.974;10.322;2022-07-26T01:41:08;98351.06;;;18.51;100.00
72721;BME280;60835;50.974;10.322;2022-07-26T01:43:35;98363.03;;;18.55;100.00
72721;BME280;60835;50.974;10.322;2022-07-26T01:46:03;98365.53;;;18.50;100.00
72721;BME280;60835;50.974;10.322;2022-07-26T01:48:30;98371.25;;;18.47;100.00
72721;BME280;60835;50.974;10.322;2022-07-26T01:50:57;98361.16;;;18.36;100.00
72721;BME280;60835;50.974;10.322;2022-07-26T01:53:23;98358.88;;;18.39;100.00
72721;BME280;60835;50.974;10.322;2022-07-26T01:55:50;98379.94;;;18.49;100.00
72721;BME280;60835;50.974;10.322;2022-07-26T01:58:17;98375.41;;;18.56;100.00
72721;BME280;60835;50.974;10.322;2022-07-26T02:00:43;98383.03;;;18.59;100.00
72721;BME280;60835;50.974;10.322;2022-07-26T02:03:10;98388.59;;;18.57;100.00
72721;BME280;60835;50.974;10.322;2022-07-26T02:05:37;98383.22;;;18.64;100.00
72721;BME280;60835;50.974;10.322;2022-07-26T02:08:03;98395.19;;;18.68;100.00
72721;BME280;60835;50.974;10.322;2022-07-26T02:10:30;98396.00;;;18.75;100.00
72721;BME280;60835;50.974;10.322;2022-07-26T02:13:16;98412.94;;;18.82;100.00
72721;BME280;60835;50.974;10.322;2022-07-26T02:15:43;98412.94;;;18.82;100.00
72721;BME280;60835;50.974;10.322;2022-07-26T02:18:09;98436.00;;;18.96;100.00
72721;BME280;60835;50.974;10.322;2022-07-26T02:20:36;98437.03;;;19.02;100.00
72721;BME280;60835;50.974;10.322;2022-07-26T02:23:03;98458.28;;;19.16;100.00
72721;BME280;60835;50.974;10.322;2022-07-26T02:25:30;98455.38;;;19.11;100.00
72721;BME280;60835;50.974;10.322;2022-07-26T02:27:56;98448.78;;;19.07;100.00
72721;BME280;60835;50.974;10.322;2022-07-26T02:30:23;98445.91;;;19.02;100.00
72721;BME280;60835;50.974;10.322;2022-07-26T02:32:50;98448.34;;;19.04;100.00
72721;BME280;60835;50.974;10.322;2022-07-26T02:35:16;98445.91;;;19.02;100.00
72721;BME280;60835;50.974;10.322;2022-07-26T02:37:43;98435.41;;;19.01;100.00
72721;BME280;60835;50.974;10.322;2022-07-26T02:40:10;98465.47;;;19.22;100.00
72721;BME280;60835;50.974;10.322;2022-07-26T02:42:44;98467.34;;;19.15;100.00
72721;BME280;60835;50.974;10.322;2022-07-26T02:45:10;98461.16;;;19.21;100.00
72721;BME280;60835;50.974;10.322;2022-07-26T02:47:48;98461.16;;;19.21;100.00
72721;BME280;60835;50.974;10.322;2022-07-26T02:50:24;98469.81;;;19.23;100.00
72721;BME280;60835;50.974;10.322;2022-07-26T02:52:52;98471.88;;;19.21;100.00
72721;BME280;60835;50.974;10.322;2022-07-26T02:55:22;98484.47;;;19.21;100.00
72721;BME280;60835;50.974;10.322;2022-07-26T02:57:49;98480.75;;;19.22;100.00
72721;BME280;60835;50.974;10.322;2022-07-26T03:00:17;98489.81;;;19.27;100.00
72721;BME280;60835;50.974;10.322;2022-07-26T03:02:45;98486.50;;;19.25;100.00
72721;BME280;60835;50.974;10.322;2022-07-26T03:05:11;98477.66;;;19.18;100.00
72721;BME280;60835;50.974;10.322;2022-07-26T03:07:38;98479.31;;;19.19;100.00
72721;BME280;60835;50.974;10.322;2022-07-26T03:10:05;98483.44;;;19.15;100.00
72721;BME280;60835;50.974;10.322;2022-07-26T03:12:31;98478.06;;;19.15;100.00
72721;BME280;60835;50.974;10.322;2022-07-26T03:14:58;98484.06;;;19.11;100.00
72721;BME280;60835;50.974;10.322;2022-07-26T03:17:25;98476.00;;;19.11;100.00
72721;BME280;60835;50.974;10.322;2022-07-26T03:19:51;98471.25;;;19.06;100.00
72721;BME280;60835;50.974;10.322;2022-07-26T03:22:18;98474.75;;;19.07;100.00
72721;BME280;60835;50.974;10.322;2022-07-26T03:24:44;98477.66;;;19.05;100.00
72721;BME280;60835;50.974;10.322;2022-07-26T03:27:11;98479.53;;;18.98;100.00
72721;BME280;60835;50.974;10.322;2022-07-26T03:29:37;98472.50;;;18.97;100.00
72721;BME280;60835;50.974;10.322;2022-07-26T03:32:04;98479.72;;;19.03;100.00
72721;BME280;60835;50.974;10.322;2022-07-26T03:34:30;98490.47;;;19.03;100.00
72721;BME280;60835;50.974;10.322;2022-07-26T03:36:57;98497.84;;;19.01;100.00
72721;BME280;60835;50.974;10.322;2022-07-26T03:39:23;98499.72;;;18.94;100.00
72721;BME280;60835;50.974;10.322;2022-07-26T03:41:50;98492.69;;;18.93;100.00
72721;BME280;60835;50.974;10.322;2022-07-26T03:44:17;98492.50;;;18.95;100.00
72721;BME280;60835;50.974;10.322;2022-07-26T03:46:44;98494.16;;;18.96;100.00
72721;BME280;60835;50.974;10.322;2022-07-26T03:49:11;98436.81;;;18.57;100.00
72721;BME280;60835;50.974;10.322;2022-07-26T03:51:45;98485.50;;;18.87;100.00
72721;BME280;60835;50.974;10.322;2022-07-26T03:54:13;98498.28;;;18.92;100.00
72721;BME280;60835;50.974;10.322;2022-07-26T03:56:43;98497.84;;;18.75;100.00
72721;BME280;60835;50.974;10.322;2022-07-26T03:59:11;98500.31;;;18.70;100.00
72721;BME280;60835;50.974;10.322;2022-07-26T04:01:38;98475.13;;;18.45;100.00
72721;BME280;60835;50.974;10.322;2022-07-26T04:04:09;98492.88;;;18.59;100.00
72721;BME280;60835;50.974;10.322;2022-07-26T04:06:38;98502.34;;;18.61;100.00
72721;BME280;60835;50.974;10.322;2022-07-26T04:09:05;98506.09;;;18.60;100.00
72721;BME280;60835;50.974;10.322;2022-07-26T04:11:33;98510.22;;;18.63;100.00
72721;BME280;60835;50.974;10.322;2022-07-26T04:14:00;98506.91;;;18.61;100.00
72721;BME280;60835;50.974;10.322;2022-07-26T04:16:28;98503.81;;;18.57;100.00
72721;BME280;60835;50.974;10.322;2022-07-26T04:18:55;98499.06;;;18.53;100.00
72721;BME280;60835;50.974;10.322;2022-07-26T04:21:22;98514.97;;;18.61;100.00
72721;BME280;60835;50.974;10.322;2022-07-26T04:23:49;98518.88;;;18.58;100.00
72721;BME280;60835;50.974;10.322;2022-07-26T04:26:18;98518.44;;;18.55;100.00
72721;BME280;60835;50.974;10.322;2022-07-26T04:28:45;98518.84;;;18.52;100.00
72721;BME280;60835;50.974;10.322;2022-07-26T04:31:13;98515.91;;;18.47;100.00
72721;BME280;60835;50.974;10.322;2022-07-26T04:33:40;98490.75;;;18.35;100.00
72721;BME280;60835;50.974;10.322;2022-07-26T04:36:06;98520.00;;;18.43;100.00
72721;BME280;60835;50.974;10.322;2022-07-26T04:38:33;98514.66;;;18.43;100.00
72721;BME280;60835;50.974;10.322;2022-07-26T04:41:00;98521.72;;;18.50;100.00
72721;BME280;60835;50.974;10.322;2022-07-26T04:43:26;98507.03;;;18.40;100.00
72721;BME280;60835;50.974;10.322;2022-07-26T04:45:53;98524.75;;;18.34;100.00
72721;BME280;60835;50.974;10.322;2022-07-26T04:48:19;98521.06;;;18.42;100.00
72721;BME280;60835;50.974;10.322;2022-07-26T04:50:46;98518.56;;;18.40;100.00
72721;BME280;60835;50.974;10.322;2022-07-26T04:53:12;98526.88;;;18.52;100.00
72721;BME280;60835;50.974;10.322;2022-07-26T04:55:40;98536.81;;;18.71;100.00
72721;BME280;60835;50.974;10.322;2022-07-26T04:58:08;98536.22;;;18.69;100.00
72721;BME280;60835;50.974;10.322;2022-07-26T05:00:35;98537.44;;;18.66;100.00
72721;BME280;60835;50.974;10.322;2022-07-26T05:03:22;98534.50;;;18.61;100.00
72721;BME280;60835;50.974;10.322;2022-07-26T05:05:51;98534.97;;;18.78;100.00
72721;BME280;60835;50.974;10.322;2022-07-26T05:08:18;98531.06;;;18.74;100.00
72721;BME280;60835;50.974;10.322;2022-07-26T05:10:44;98550.25;;;18.84;100.00
72721;BME280;60835;50.974;10.322;2022-07-26T05:13:11;98515.16;;;18.72;100.00
72721;BME280;60835;50.974;10.322;2022-07-26T05:15:38;98560.97;;;19.04;100.00
72721;BME280;60835;50.974;10.322;2022-07-26T05:18:08;98545.31;;;19.07;100.00
72721;BME280;60835;50.974;10.322;2022-07-26T05:20:39;98570.06;;;19.22;100.00
72721;BME280;60835;50.974;10.322;2022-07-26T05:23:05;98559.34;;;19.16;100.00
72721;BME280;60835;50.974;10.322;2022-07-26T05:25:32;98563.28;;;19.26;100.00
72721;BME280;60835;50.974;10.322;2022-07-26T05:28:00;98552.13;;;19.03;100.00
72721;BME280;60835;50.974;10.322;2022-07-26T05:30:26;98576.72;;;19.39;100.00
72721;BME280;60835;50.974;10.322;2022-07-26T05:32:53;98578.38;;;19.40;100.00
72721;BME280;60835;50.974;10.322;2022-07-26T05:35:20;98589.09;;;19.67;100.00
72721;BME280;60835;50.974;10.322;2022-07-26T05:37:46;98588.66;;;19.70;100.00
72721;BME280;60835;50.974;10.322;2022-07-26T05:40:13;98600.88;;;19.53;100.00
72721;BME280;60835;50.974;10.322;2022-07-26T05:42:39;98592.78;;;19.59;100.00
72721;BME280;60835;50.974;10.322;2022-07-26T05:45:06;98600.63;;;19.67;100.00
72721;BME280;60835;50.974;10.322;2022-07-26T05:47:33;98604.34;;;19.60;100.00
72721;BME280;60835;50.974;10.322;2022-07-26T05:49:59;98607.69;;;19.62;100.00
72721;BME280;60835;50.974;10.322;2022-07-26T05:52:26;98608.25;;;19.90;100.00
72721;BME280;60835;50.974;10.322;2022-07-26T05:54:52;98604.31;;;19.99;100.00
72721;BME280;60835;50.974;10.322;2022-07-26T05:57:19;98629.88;;;20.41;100.00
72721;BME280;60835;50.974;10.322;2022-07-26T05:59:46;98618.03;;;20.48;100.00
72721;BME280;60835;50.974;10.322;2022-07-26T06:02:13;98649.47;;;20.92;100.00
72721;BME280;60835;50.974;10.322;2022-07-26T06:04:39;98662.69;;;21.07;100.00
72721;BME280;60835;50.974;10.322;2022-07-26T06:07:06;98655.97;;;21.47;100.00
72721;BME280;60835;50.974;10.322;2022-07-26T06:09:33;98653.22;;;21.29;100.00
72721;BME280;60835;50.974;10.322;2022-07-26T06:11:59;98682.91;;;21.78;100.00
72721;BME280;60835;50.974;10.322;2022-07-26T06:14:26;98678.16;;;21.49;100.00
72721;BME280;60835;50.974;10.322;2022-07-26T06:16:53;98643.69;;;21.33;100.00
72721;BME280;60835;50.974;10.322;2022-07-26T06:19:20;98665.50;;;21.74;100.00
72721;BME280;60835;50.974;10.322;2022-07-26T06:21:47;98692.31;;;21.94;100.00
72721;BME280;60835;50.974;10.322;2022-07-26T06:24:13;98691.25;;;22.20;100.00
72721;BME280;60835;50.974;10.322;2022-07-26T06:26:40;98705.22;;;23.08;100.00
72721;BME280;60835;50.974;10.322;2022-07-26T06:29:08;98716.72;;;23.62;100.00
72721;BME280;60835;50.974;10.322;2022-07-26T06:31:39;98728.13;;;24.17;100.00
72721;BME280;60835;50.974;10.322;2022-07-26T06:34:06;98693.56;;;23.55;100.00
72721;BME280;60835;50.974;10.322;2022-07-26T06:36:35;98718.09;;;24.06;100.00
72721;BME280;60835;50.974;10.322;2022-07-26T06:39:05;98721.50;;;23.31;100.00
72721;BME280;60835;50.974;10.322;2022-07-26T06:41:35;98717.91;;;22.71;100.00
72721;BME280;60835;50.974;10.322;2022-07-26T06:44:02;98722.25;;;23.08;100.00
72721;BME280;60835;50.974;10.322;2022-07-26T06:46:33;98732.53;;;24.00;100.00
72721;BME280;60835;50.974;10.322;2022-07-26T06:49:01;98737.31;;;24.16;100.00
72721;BME280;60835;50.974;10.322;2022-07-26T06:51:28;98746.00;;;24.88;100.00
72721;BME280;60835;50.974;10.322;2022-07-26T06:53:54;98733.81;;;25.14;100.00
72721;BME280;60835;50.974;10.322;2022-07-26T06:56:25;98750.19;;;25.47;100.00
72721;BME280;60835;50.974;10.322;2022-07-26T06:58:52;98745.53;;;24.21;100.00
72721;BME280;60835;50.974;10.322;2022-07-26T07:01:23;98755.47;;;25.54;100.00
72721;BME280;60835;50.974;10.322;2022-07-26T07:04:09;98758.13;;;25.82;100.00
72721;BME280;60835;50.974;10.322;2022-07-26T07:06:37;98761.31;;;25.62;100.00
72721;BME280;60835;50.974;10.322;2022-07-26T07:09:03;98767.69;;;26.01;100.00
72721;BME280;60835;50.974;10.322;2022-07-26T07:11:33;98771.47;;;26.00;100.00
72721;BME280;60835;50.974;10.322;2022-07-26T07:14:00;98775.00;;;25.84;100.00
72721;BME280;60835;50.974;10.322;2022-07-26T07:16:29;98772.16;;;26.40;100.00
72721;BME280;60835;50.974;10.322;2022-07-26T07:18:55;98778.47;;;25.96;100.00
72721;BME280;60835;50.974;10.322;2022-07-26T07:21:22;98737.88;;;26.01;100.00
72721;BME280;60835;50.974;10.322;2022-07-26T07:23:48;98773.47;;;26.05;100.00
72721;BME280;60835;50.974;10.322;2022-07-26T07:26:17;98759.84;;;25.03;100.00
72721;BME280;60835;50.974;10.322;2022-07-26T07:28:45;98766.00;;;25.38;100.00
72721;BME280;60835;50.974;10.322;2022-07-26T07:31:13;98776.47;;;26.75;100.00
72721;BME280;60835;50.974;10.322;2022-07-26T07:33:40;98768.19;;;25.98;100.00
72721;BME280;60835;50.974;10.322;2022-07-26T07:36:18;98782.22;;;26.23;100.00
72721;BME280;60835;50.974;10.322;2022-07-26T07:38:45;98779.91;;;26.15;100.00
72721;BME280;60835;50.974;10.322;2022-07-26T07:41:11;98770.97;;;26.03;100.00
72721;BME280;60835;50.974;10.322;2022-07-26T07:43:38;98768.91;;;24.97;100.00
72721;BME280;60835;50.974;10.322;2022-07-26T07:46:04;98768.03;;;26.05;100.00
72721;BME280;60835;50.974;10.322;2022-07-26T07:48:31;98780.09;;;26.97;100.00
72721;BME280;60835;50.974;10.322;2022-07-26T07:50:58;98779.00;;;26.26;100.00
72721;BME280;60835;50.974;10.322;2022-07-26T07:53:24;98776.44;;;25.75;100.00
72721;BME280;60835;50.974;10.322;2022-07-26T07:55:51;98782.34;;;26.67;100.00
72721;BME280;60835;50.974;10.322;2022-07-26T07:58:20;98781.31;;;27.49;100.00
72721;BME280;60835;50.974;10.322;2022-07-26T08:00:47;98782.22;;;28.08;100.00
72721;BME280;60835;50.974;10.322;2022-07-26T08:03:14;98792.53;;;27.79;99.63
72721;BME280;60835;50.974;10.322;2022-07-26T08:05:45;98780.97;;;27.02;100.00
72721;BME280;60835;50.974;10.322;2022-07-26T08:08:14;98784.09;;;27.54;100.00
72721;BME280;60835;50.974;10.322;2022-07-26T08:10:42;98765.06;;;26.73;100.00
72721;BME280;60835;50.974;10.322;2022-07-26T08:13:17;98779.88;;;28.22;97.22
72721;BME280;60835;50.974;10.322;2022-07-26T08:15:48;98791.50;;;28.86;93.85
72721;BME280;60835;50.974;10.322;2022-07-26T08:18:15;98783.50;;;28.64;94.57
72721;BME280;60835;50.974;10.322;2022-07-26T08:20:42;98783.94;;;26.79;100.00
72721;BME280;60835;50.974;10.322;2022-07-26T08:23:08;98774.22;;;28.28;96.09
72721;BME280;60835;50.974;10.322;2022-07-26T08:25:35;98786.41;;;28.58;93.06
72721;BME280;60835;50.974;10.322;2022-07-26T08:28:11;98787.78;;;28.23;92.44
72721;BME280;60835;50.974;10.322;2022-07-26T08:30:57;98803.59;;;27.73;97.12
72721;BME280;60835;50.974;10.322;2022-07-26T08:33:24;98800.75;;;26.98;100.00
72721;BME280;60835;50.974;10.322;2022-07-26T08:35:51;98805.22;;;26.37;100.00
72721;BME280;60835;50.974;10.322;2022-07-26T08:38:23;98795.25;;;25.65;100.00
72721;BME280;60835;50.974;10.322;2022-07-26T08:40:50;98790.72;;;24.79;100.00
72721;BME280;60835;50.974;10.322;2022-07-26T08:43:16;98764.16;;;24.00;100.00
72721;BME280;60835;50.974;10.322;2022-07-26T08:45:43;98780.78;;;24.73;100.00
72721;BME280;60835;50.974;10.322;2022-07-26T08:48:10;98801.88;;;27.94;98.79
72721;BME280;60835;50.974;10.322;2022-07-26T08:50:43;98807.91;;;27.69;98.95
72721;BME280;60835;50.974;10.322;2022-07-26T08:53:10;98792.41;;;26.49;99.77
72721;BME280;60835;50.974;10.322;2022-07-26T08:55:38;98802.44;;;27.42;99.60
72721;BME280;60835;50.974;10.322;2022-07-26T08:58:25;98798.31;;;26.63;100.00
72721;BME280;60835;50.974;10.322;2022-07-26T09:01:06;98818.66;;;27.86;92.61
72721;BME280;60835;50.974;10.322;2022-07-26T09:03:34;98803.94;;;28.03;96.34
72721;BME280;60835;50.974;10.322;2022-07-26T09:06:20;98822.34;;;29.38;82.10
72721;BME280;60835;50.974;10.322;2022-07-26T09:08:51;98817.94;;;28.17;87.09
72721;BME280;60835;50.974;10.322;2022-07-26T09:11:29;98825.38;;;27.78;90.34
72721;BME280;60835;50.974;10.322;2022-07-26T09:14:01;98823.56;;;27.62;91.56
72721;BME280;60835;50.974;10.322;2022-07-26T09:16:29;98810.28;;;30.22;80.60
72721;BME280;60835;50.974;10.322;2022-07-26T09:19:14;98822.97;;;28.62;86.64
72721;BME280;60835;50.974;10.322;2022-07-26T09:21:43;98819.63;;;30.36;79.75
72721;BME280;60835;50.974;10.322;2022-07-26T09:24:10;98823.78;;;29.56;80.44
72721;BME280;60835;50.974;10.322;2022-07-26T09:26:36;98806.03;;;28.28;86.23
72721;BME280;60835;50.974;10.322;2022-07-26T09:29:08;98822.69;;;29.57;80.95
72721;BME280;60835;50.974;10.322;2022-07-26T09:31:37;98825.09;;;30.41;75.46
72721;BME280;60835;50.974;10.322;2022-07-26T09:34:05;98816.88;;;30.46;74.17
72721;BME280;60835;50.974;10.322;2022-07-26T09:36:49;98818.94;;;29.73;72.79
72721;BME280;60835;50.974;10.322;2022-07-26T09:39:16;98802.50;;;29.53;74.80
72721;BME280;60835;50.974;10.322;2022-07-26T09:41:47;98791.81;;;28.53;82.94
72721;BME280;60835;50.974;10.322;2022-07-26T09:44:39;98822.28;;;28.18;82.95
72721;BME280;60835;50.974;10.322;2022-07-26T09:47:14;98793.41;;;28.80;82.08
72721;BME280;60835;50.974;10.322;2022-07-26T09:49:41;98834.38;;;27.78;88.81
72721;BME280;60835;50.974;10.322;2022-07-26T09:52:16;98835.94;;;28.23;89.29
72721;BME280;60835;50.974;10.322;2022-07-26T09:54:43;98835.25;;;27.19;94.28
72721;BME280;60835;50.974;10.322;2022-07-26T09:57:16;98820.19;;;26.90;97.62
72721;BME280;60835;50.974;10.322;2022-07-26T09:59:44;98816.06;;;26.37;98.76
72721;BME280;60835;50.974;10.322;2022-07-26T10:02:11;98829.00;;;26.02;100.00
72721;BME280;60835;50.974;10.322;2022-07-26T10:04:40;98833.03;;;25.71;100.00
72721;BME280;60835;50.974;10.322;2022-07-26T10:07:08;98815.91;;;25.54;100.00
72721;BME280;60835;50.974;10.322;2022-07-26T10:09:52;98830.72;;;24.89;100.00
72721;BME280;60835;50.974;10.322;2022-07-26T10:12:22;98831.63;;;25.17;100.00
72721;BME280;60835;50.974;10.322;2022-07-26T10:14:55;98808.56;;;25.03;100.00
72721;BME280;60835;50.974;10.322;2022-07-26T10:20:04;98843.75;;;24.92;100.00
72721;BME280;60835;50.974;10.322;2022-07-26T10:22:44;98851.13;;;24.50;100.00
72721;BME280;60835;50.974;10.322;2022-07-26T10:27:50;98850.66;;;24.53;100.00
72721;BME280;60835;50.974;10.322;2022-07-26T10:38:08;98856.19;;;24.46;100.00
72721;BME280;60835;50.974;10.322;2022-07-26T10:40:36;98864.56;;;24.68;100.00
72721;BME280;60835;50.974;10.322;2022-07-26T10:43:14;98866.00;;;24.17;100.00
72721;BME280;60835;50.974;10.322;2022-07-26T10:46:21;98873.81;;;24.37;100.00
72721;BME280;60835;50.974;10.322;2022-07-26T10:48:57;98867.69;;;24.42;100.00
72721;BME280;60835;50.974;10.322;2022-07-26T10:51:26;98863.72;;;24.56;100.00
72721;BME280;60835;50.974;10.322;2022-07-26T10:54:00;98857.06;;;24.70;100.00
72721;BME280;60835;50.974;10.322;2022-07-26T10:56:28;98870.25;;;25.01;100.00
72721;BME280;60835;50.974;10.322;2022-07-26T10:58:58;98876.34;;;24.97;100.00
72721;BME280;60835;50.974;10.322;2022-07-26T11:01:32;98877.03;;;25.50;100.00
72721;BME280;60835;50.974;10.322;2022-07-26T11:03:59;98876.44;;;25.48;100.00
72721;BME280;60835;50.974;10.322;2022-07-26T11:06:27;98878.03;;;25.72;100.00
72721;BME280;60835;50.974;10.322;2022-07-26T11:08:55;98860.84;;;25.95;100.00
72721;BME280;60835;50.974;10.322;2022-07-26T11:11:29;98867.03;;;25.79;100.00
72721;BME280;60835;50.974;10.322;2022-07-26T11:14:14;98869.00;;;25.55;100.00
72721;BME280;60835;50.974;10.322;2022-07-26T11:16:43;98872.47;;;25.79;100.00
72721;BME280;60835;50.974;10.322;2022-07-26T11:19:13;98867.25;;;25.89;100.00
72721;BME280;60835;50.974;10.322;2022-07-26T11:21:41;98856.00;;;24.94;100.00
72721;BME280;60835;50.974;10.322;2022-07-26T11:24:10;98871.63;;;25.27;100.00
72721;BME280;60835;50.974;10.322;2022-07-26T11:26:45;98871.41;;;25.05;100.00
72721;BME280;60835;50.974;10.322;2022-07-26T11:29:12;98864.47;;;24.74;100.00
72721;BME280;60835;50.974;10.322;2022-07-26T11:31:45;98853.66;;;25.09;100.00
72721;BME280;60835;50.974;10.322;2022-07-26T11:34:30;98881.28;;;25.34;100.00
72721;BME280;60835;50.974;10.322;2022-07-26T11:37:01;98887.53;;;25.47;100.00
72721;BME280;60835;50.974;10.322;2022-07-26T11:39:33;98882.00;;;25.30;100.00
72721;BME280;60835;50.974;10.322;2022-07-26T11:42:05;98883.66;;;25.19;100.00
72721;BME280;60835;50.974;10.322;2022-07-26T11:44:32;98886.84;;;25.28;100.00
72721;BME280;60835;50.974;10.322;2022-07-26T11:47:00;98893.66;;;25.30;100.00
72721;BME280;60835;50.974;10.322;2022-07-26T11:49:35;98884.03;;;24.88;100.00
72721;BME280;60835;50.974;10.322;2022-07-26T11:52:28;98886.00;;;24.81;100.00
72721;BME280;60835;50.974;10.322;2022-07-26T11:54:55;98891.41;;;24.81;100.00
72721;BME280;60835;50.974;10.322;2022-07-26T11:57:27;98888.47;;;25.52;100.00
72721;BME280;60835;50.974;10.322;2022-07-26T11:59:54;98887.03;;;25.50;100.00
72721;BME280;60835;50.974;10.322;2022-07-26T12:02:20;98899.66;;;24.98;100.00
72721;BME280;60835;50.974;10.322;2022-07-26T12:04:47;98891.06;;;24.89;100.00
72721;BME280;60835;50.974;10.322;2022-07-26T12:07:17;98871.78;;;24.97;100.00
72721;BME280;60835;50.974;10.322;2022-07-26T12:09:49;98887.50;;;25.35;100.00
72721;BME280;60835;50.974;10.322;2022-07-26T12:12:24;98895.19;;;25.26;100.00
72721;BME280;60835;50.974;10.322;2022-07-26T12:15:02;98888.59;;;25.11;100.00
72721;BME280;60835;50.974;10.322;2022-07-26T12:17:31;98882.47;;;25.15;100.00
72721;BME280;60835;50.974;10.322;2022-07-26T12:20:11;98886.25;;;25.14;100.00
72721;BME280;60835;50.974;10.322;2022-07-26T12:22:39;98878.72;;;25.16;100.00
72721;BME280;60835;50.974;10.322;2022-07-26T12:25:06;98878.25;;;25.19;100.00
72721;BME280;60835;50.974;10.322;2022-07-26T12:27:33;98869.28;;;25.30;100.00
72721;BME280;60835;50.974;10.322;2022-07-26T12:32:35;98883.91;;;25.06;100.00
72721;BME280;60835;50.974;10.322;2022-07-26T12:35:10;98879.69;;;25.73;100.00
72721;BME280;60835;50.974;10.322;2022-07-26T12:40:15;98878.72;;;25.16;100.00
72721;BME280;60835;50.974;10.322;2022-07-26T12:45:20;98875.06;;;25.74;100.00
72721;BME280;60835;50.974;10.322;2022-07-26T12:47:49;98852.38;;;25.63;100.00
72721;BME280;60835;50.974;10.322;2022-07-26T12:50:17;98875.44;;;25.66;100.00
72721;BME280;60835;50.974;10.322;2022-07-26T12:52:44;98880.84;;;25.77;100.00
72721;BME280;60835;50.974;10.322;2022-07-26T12:55:13;98875.78;;;25.81;100.00
72721;BME280;60835;50.974;10.322;2022-07-26T12:57:42;98878.03;;;25.72;100.00
72721;BME280;60835;50.974;10.322;2022-07-26T13:00:14;98869.06;;;26.00;100.00
72721;BME280;60835;50.974;10.322;2022-07-26T13:02:42;98881.56;;;26.01;100.00
72721;BME280;60835;50.974;10.322;2022-07-26T13:05:10;98886.84;;;25.79;100.00
72721;BME280;60835;50.974;10.322;2022-07-26T13:07:37;98885.63;;;25.47;100.00
72721;BME280;60835;50.974;10.322;2022-07-26T13:10:05;98882.81;;;25.82;100.00